This is the latest recevied weather packets stored in our database for station/object KI4FRU. If no packets are shown the sender has not sent any weather packets the latest 10 day(s).
| Time | Temp. | Humidity | Pressure | Rain* | Wind** | Luminosity | Snow |
|---|---|---|---|---|---|---|---|
| 1777848950 | 19.44° C | 46% | 1054.2 hPa | 0 mm | - | 24 W/m² | - |
| 1777848645 | 19.44° C | 46% | 1054.3 hPa | 0 mm | - | 25 W/m² | - |
| 1777848343 | 20° C | 46% | 1054.1 hPa | 0 mm | - | 27 W/m² | - |
| 1777848041 | 20° C | 44% | 1054.1 hPa | 0 mm | - | 27 W/m² | - |
| 1777847739 | 20° C | 46% | 1054.3 hPa | 0 mm | - | 51 W/m² | - |
| 1777847434 | 20° C | 45% | 1054.3 hPa | 0 mm | - | 28 W/m² | - |
| 1777847132 | 20° C | 44% | 1054.3 hPa | 0 mm | - | 25 W/m² | - |
| 1777846830 | 20.56° C | 44% | 1054.3 hPa | 0 mm | - | 33 W/m² | - |
| 1777846528 | 21.11° C | 44% | 1054.4 hPa | 0 mm | - | 33 W/m² | - |
| 1777846225 | 22.22° C | 39% | 1054.4 hPa | 0 mm | - | 30 W/m² | - |
| 1777845921 | 22.78° C | 40% | 1054.4 hPa | 0 mm | - | 185 W/m² | - |
| 1777845618 | 23.33° C | 37% | 1054.6 hPa | 0 mm | - | 221 W/m² | - |
| 1777845315 | 22.78° C | 38% | 1054.5 hPa | 0 mm | - | 233 W/m² | - |
| 1777845012 | 23.33° C | 38% | 1054.5 hPa | 0 mm | - | 249 W/m² | - |
| 1777844711 | 24.44° C | 36% | 1054.6 hPa | 0 mm | - | 38 W/m² | - |
| 1777844407 | 23.89° C | 38% | 1054.9 hPa | 0 mm | - | 278 W/m² | - |
| 1777844105 | 23.89° C | 38% | 1054.8 hPa | 0 mm | - | 290 W/m² | - |
| 1777843801 | 23.89° C | 37% | 1054.8 hPa | 0 mm | - | 279 W/m² | - |
| 1777843499 | 23.33° C | 39% | 1054.7 hPa | 0 mm | - | 261 W/m² | - |
| 1777843195 | 23.33° C | 37% | 1055.1 hPa | 0 mm | - | 334 W/m² | - |
| 1777842892 | 23.33° C | 35% | 1055.3 hPa | 0 mm | - | 349 W/m² | - |
| 1777842583 | 23.33° C | 36% | 1054.9 hPa | 0 mm | - | 362 W/m² | - |
| 1777842280 | 23.33° C | 36% | 1055 hPa | 0 mm | - | 378 W/m² | - |
| 1777841979 | 23.33° C | 38% | 1055.1 hPa | 0 mm | - | 392 W/m² | - |
| 1777841677 | 22.78° C | 38% | 1055.3 hPa | 0 mm | - | 401 W/m² | - |
* Rain latest hour (hover to see other rain measurements)
** Current wind speed in m/s (hover to see current wind gust speed)